createdAt,value
2023-02-01T00:00:08.831Z,99096.88
2023-02-01T00:02:42.345Z,99096.91
2023-02-01T00:05:12.356Z,99098.59
2023-02-01T00:07:41.757Z,99095.19
2023-02-01T00:10:12.023Z,99099.50
2023-02-01T00:12:41.678Z,99096.03
2023-02-01T00:15:11.923Z,99089.19
2023-02-01T00:17:42.706Z,99095.19
2023-02-01T00:20:12.714Z,99095.09
2023-02-01T00:22:42.299Z,99096.00
2023-02-01T00:25:13.108Z,99101.13
2023-02-01T00:27:42.832Z,99098.53
2023-02-01T00:30:13.226Z,99091.69
2023-02-01T00:32:42.652Z,99098.50
2023-02-01T00:35:13.513Z,99101.09
2023-02-01T00:37:43.199Z,99101.91
2023-02-01T00:40:13.165Z,99101.91
2023-02-01T00:42:42.717Z,99096.78
2023-02-01T00:45:12.756Z,99097.69
2023-02-01T00:47:42.308Z,99094.28
2023-02-01T00:50:12.604Z,99096.00
2023-02-01T00:52:42.186Z,99095.97
2023-02-01T00:55:11.508Z,99093.38
2023-02-01T00:57:41.130Z,99095.94
2023-02-01T01:00:13.233Z,99094.22
2023-02-01T01:02:44.530Z,99086.56
2023-02-01T01:05:18.889Z,99093.31
2023-02-01T01:07:49.268Z,99087.34
2023-02-01T01:10:19.787Z,99093.31
2023-02-01T01:12:50.466Z,99095.00
2023-02-01T01:15:21.153Z,99095.81
2023-02-01T01:17:54.338Z,99107.63
2023-02-01T01:20:36.878Z,99112.81
2023-02-01T01:23:09.936Z,99114.31
2023-02-01T01:29:44.054Z,99120.25
2023-02-01T01:32:14.803Z,99124.56
2023-02-01T01:34:45.265Z,99131.38
2023-02-01T01:37:26.586Z,99130.63
2023-02-01T01:39:58.169Z,99130.56
2023-02-01T01:42:28.385Z,99131.44
2023-02-01T01:45:09.222Z,99127.31
2023-02-01T01:47:49.532Z,99123.09
2023-02-01T01:50:26.408Z,99124.72
2023-02-01T01:53:00.443Z,99130.50
2023-02-01T01:55:35.030Z,99132.19
2023-02-01T01:58:13.273Z,99136.63
2023-02-01T02:00:44.850Z,99138.22
2023-02-01T02:03:52.533Z,99152.13
2023-02-01T02:06:34.053Z,99141.75
2023-02-01T02:09:06.929Z,99144.84
2023-02-01T02:11:37.448Z,99153.53
2023-02-01T02:14:50.106Z,99151.03
2023-02-01T02:17:39.151Z,99154.56
2023-02-01T02:20:42.721Z,99167.41
2023-02-01T02:24:05.908Z,99165.81
2023-02-01T02:27:03.449Z,99159.00
2023-02-01T02:29:58.511Z,99164.13
2023-02-01T02:32:50.086Z,99166.78
2023-02-01T02:35:46.977Z,99165.03
2023-02-01T02:38:39.493Z,99177.94
2023-02-01T02:41:40.483Z,99171.97
2023-02-01T02:44:52.864Z,99183.16
2023-02-01T02:47:51.698Z,99179.84
2023-02-01T02:50:53.292Z,99192.72
2023-02-01T02:54:09.445Z,99182.53
2023-02-01T02:56:59.140Z,99185.97
2023-02-01T02:59:49.808Z,99186.84
2023-02-01T03:02:38.569Z,99197.22
2023-02-01T03:05:08.602Z,99187.78
2023-02-01T03:07:47.416Z,99175.94
2023-02-01T03:10:23.480Z,99185.41
2023-02-01T03:13:00.879Z,99197.41
2023-02-01T03:15:42.437Z,99198.41
2023-02-01T03:18:31.145Z,99208.69
2023-02-01T03:21:05.547Z,99221.53
2023-02-01T03:23:40.362Z,99225.00
2023-02-01T03:26:17.126Z,99235.31
2023-02-01T03:28:57.818Z,99237.03
2023-02-01T03:31:29.599Z,99246.47
2023-02-01T03:33:59.041Z,99257.66
2023-02-01T03:36:37.640Z,99253.44
2023-02-01T03:39:19.921Z,99254.34
2023-02-01T03:41:57.748Z,99258.56
2023-02-01T03:44:54.040Z,99260.38
2023-02-01T03:47:29.598Z,99267.22
2023-02-01T03:50:09.356Z,99266.41
2023-02-01T03:52:51.321Z,99275.00
2023-02-01T03:55:24.378Z,99268.09
2023-02-01T03:58:12.030Z,99278.47
2023-02-01T04:00:41.940Z,99284.41
2023-02-01T04:03:11.079Z,99284.44
2023-02-01T04:05:39.843Z,99287.00
2023-02-01T04:08:10.803Z,99282.75
2023-02-01T04:10:40.106Z,99290.50
2023-02-01T04:13:10.216Z,99287.09
2023-02-01T04:15:40.271Z,99291.44
2023-02-01T04:18:09.080Z,99295.75
2023-02-01T04:20:38.480Z,99300.91
2023-02-01T04:23:07.673Z,99306.06
2023-02-01T04:25:36.895Z,99315.50
2023-02-01T04:28:06.702Z,99325.84
2023-02-01T04:30:36.372Z,99331.88
2023-02-01T04:33:08.471Z,99337.88
2023-02-01T04:35:37.798Z,99331.84
2023-02-01T04:38:06.711Z,99335.31
2023-02-01T04:40:36.376Z,99342.19
2023-02-01T04:43:19.408Z,99350.78
2023-02-01T04:45:57.796Z,99340.47
2023-02-01T04:48:27.296Z,99347.34
2023-02-01T04:50:56.291Z,99354.19
2023-02-01T04:53:25.413Z,99355.91
2023-02-01T04:55:54.613Z,99362.78
2023-02-01T04:58:23.949Z,99355.94
2023-02-01T05:00:53.683Z,99366.25
2023-02-01T05:03:23.083Z,99361.94
2023-02-01T05:05:53.917Z,99362.78
2023-02-01T05:08:27.296Z,99361.97
2023-02-01T05:10:56.785Z,99365.38
2023-02-01T05:13:44.233Z,99369.63
2023-02-01T05:16:16.084Z,99364.44
2023-02-01T05:18:45.719Z,99360.97
2023-02-01T05:21:15.319Z,99361.78
2023-02-01T05:24:03.669Z,99365.19
2023-02-01T05:26:33.178Z,99363.47
2023-02-01T05:29:06.520Z,99359.91
2023-02-01T05:31:44.690Z,99358.25
2023-02-01T05:34:20.888Z,99351.19
2023-02-01T05:36:54.708Z,99364.91
2023-02-01T05:39:56.176Z,99370.16
2023-02-01T05:42:35.750Z,99364.94
2023-02-01T05:45:17.916Z,99366.59
2023-02-01T05:47:48.274Z,99356.28
2023-02-01T05:50:19.705Z,99361.28
2023-02-01T05:52:50.483Z,99344.03
2023-02-01T05:55:21.145Z,99348.28
2023-02-01T05:57:51.653Z,99336.19
2023-02-01T06:00:24.346Z,99332.28
2023-02-01T06:02:58.367Z,99317.09
2023-02-01T06:05:54.139Z,99319.50
2023-02-01T06:08:33.175Z,99321.03
2023-02-01T06:11:10.935Z,99310.34
2023-02-01T06:13:42.340Z,99298.25
2023-02-01T06:16:19.436Z,99296.38
2023-02-01T06:19:01.480Z,99287.72
2023-02-01T06:21:31.978Z,99279.00
2023-02-01T06:24:03.545Z,99279.81
2023-02-01T06:26:34.138Z,99276.59
2023-02-01T06:29:04.232Z,99267.78
2023-02-01T06:31:37.998Z,99267.72
2023-02-01T06:34:08.422Z,99258.88
2023-02-01T06:36:38.893Z,99260.41
2023-02-01T06:39:09.466Z,99246.59
2023-02-01T06:41:39.756Z,99238.25
2023-02-01T06:44:09.817Z,99234.34
2023-02-01T06:46:40.064Z,99218.72
2023-02-01T06:49:11.086Z,99212.97
2023-02-01T06:51:54.019Z,99212.03
2023-02-01T06:54:47.584Z,99213.69
2023-02-01T06:57:21.685Z,99205.13
2023-02-01T06:59:51.352Z,99202.75
2023-02-01T07:02:20.555Z,99192.31
2023-02-01T07:04:49.985Z,99193.31
2023-02-01T07:07:21.507Z,99171.56
2023-02-01T07:10:01.567Z,99152.91
2023-02-01T07:12:31.077Z,99150.50
2023-02-01T07:15:00.413Z,99153.09
2023-02-01T07:17:31.270Z,99153.03
2023-02-01T07:20:02.077Z,99148.47
2023-02-01T07:22:31.462Z,99154.53
2023-02-01T07:25:00.656Z,99153.72
2023-02-01T07:27:29.827Z,99151.66
2023-02-01T07:30:02.053Z,99158.44
2023-02-01T07:32:32.286Z,99168.78
2023-02-01T07:35:01.583Z,99172.44
2023-02-01T07:37:31.845Z,99172.38
2023-02-01T07:40:01.090Z,99169.09
2023-02-01T07:42:30.351Z,99173.91
2023-02-01T07:45:07.890Z,99173.75
2023-02-01T07:47:44.274Z,99167.19
2023-02-01T07:50:13.311Z,99166.56
2023-02-01T07:52:42.713Z,99163.38
2023-02-01T07:55:12.284Z,99163.25
2023-02-01T07:57:41.722Z,99147.78
2023-02-01T08:00:44.278Z,99145.34
2023-02-01T08:03:14.150Z,99132.28
2023-02-01T08:05:44.771Z,99133.97
2023-02-01T08:08:15.004Z,99127.53
2023-02-01T08:10:44.356Z,99121.53
2023-02-01T08:13:13.556Z,99117.84
2023-02-01T08:15:42.816Z,99100.34
2023-02-01T08:18:13.113Z,99107.72
2023-02-01T08:20:44.472Z,99105.84
2023-02-01T08:26:39.186Z,99098.84
2023-02-01T08:29:11.364Z,99090.16
2023-02-01T08:31:44.017Z,99092.75
2023-02-01T08:34:16.423Z,99083.75
2023-02-01T08:37:00.487Z,99078.16
2023-02-01T08:43:18.950Z,99071.56
2023-02-01T08:45:48.525Z,99064.25
2023-02-01T08:48:18.293Z,99056.47
2023-02-01T08:50:47.995Z,99043.44
2023-02-01T08:53:23.597Z,99050.75
2023-02-01T08:55:53.557Z,99032.53
2023-02-01T08:58:23.767Z,99040.25
2023-02-01T09:00:54.066Z,99037.44
2023-02-01T09:03:24.494Z,99034.63
2023-02-01T09:05:54.645Z,99033.91
2023-02-01T09:08:24.438Z,99032.00
2023-02-01T09:10:53.810Z,99033.75
2023-02-01T09:13:24.761Z,99032.31
2023-02-01T09:15:54.633Z,99038.97
2023-02-01T09:18:24.418Z,99032.94
2023-02-01T09:25:32.473Z,99019.00
2023-02-01T09:28:02.682Z,99025.25
2023-02-01T09:30:33.069Z,99017.44
2023-02-01T09:33:03.294Z,99010.78
2023-02-01T09:35:33.470Z,99006.97
2023-02-01T09:42:26.386Z,99008.81
2023-02-01T09:45:12.962Z,98993.59
2023-02-01T09:48:13.415Z,98999.81
2023-02-01T09:50:56.453Z,98986.81
2023-02-01T09:53:33.901Z,98990.38
2023-02-01T09:56:25.958Z,98990.13
2023-02-01T09:59:45.793Z,98988.75
2023-02-01T10:02:27.497Z,98978.84
2023-02-01T10:05:05.704Z,98980.16
2023-02-01T10:07:46.210Z,98979.81
2023-02-01T10:10:28.632Z,98978.91
2023-02-01T10:13:21.559Z,98976.25
2023-02-01T10:16:16.913Z,98976.66
2023-02-01T10:19:19.272Z,98962.63
2023-02-01T10:22:12.817Z,98964.81
2023-02-01T10:24:53.840Z,98960.34
2023-02-01T10:27:32.459Z,98966.06
2023-02-01T10:30:19.244Z,98962.81
2023-02-01T10:32:52.488Z,98963.13
2023-02-01T10:35:30.936Z,98966.41
2023-02-01T10:38:04.874Z,98966.44
2023-02-01T10:40:37.063Z,98967.38
2023-02-01T10:43:06.413Z,98972.50
2023-02-01T10:45:40.707Z,98975.22
2023-02-01T10:48:12.307Z,98971.53
2023-02-01T10:51:19.810Z,98968.31
2023-02-01T10:54:04.969Z,98964.25
2023-02-01T10:56:43.073Z,98959.91
2023-02-01T11:00:11.925Z,98962.53
2023-02-01T11:02:42.083Z,98958.94
2023-02-01T11:05:14.256Z,98960.16
2023-02-01T11:07:51.016Z,98962.53
2023-02-01T11:10:40.111Z,98961.50
2023-02-01T11:13:21.913Z,98957.91
2023-02-01T11:16:00.593Z,98961.97
2023-02-01T11:18:32.511Z,98958.44
2023-02-01T11:21:02.809Z,98956.19
2023-02-01T11:23:35.589Z,98944.66
2023-02-01T11:26:23.161Z,98946.34
2023-02-01T11:29:18.869Z,98954.25
2023-02-01T11:31:53.439Z,98958.47
2023-02-01T11:34:32.943Z,98959.34
2023-02-01T11:37:08.111Z,98957.88
2023-02-01T11:39:47.649Z,98957.75
2023-02-01T11:42:23.105Z,98955.47
2023-02-01T11:45:41.166Z,98963.84
2023-02-01T11:49:00.200Z,98965.81
2023-02-01T11:53:30.449Z,98963.97
2023-02-01T12:00:46.519Z,98960.78
2023-02-01T12:03:59.960Z,98970.44
2023-02-01T12:06:56.242Z,98973.31
2023-02-01T12:09:40.874Z,98975.38
2023-02-01T12:12:29.918Z,98972.00
2023-02-01T12:15:17.082Z,98980.09
2023-02-01T12:18:24.674Z,98979.94
2023-02-01T12:21:25.175Z,98988.94
2023-02-01T12:24:12.820Z,98986.34
2023-02-01T12:26:57.330Z,98983.28
2023-02-01T12:30:39.164Z,98980.63
2023-02-01T12:33:51.701Z,98986.78
2023-02-01T12:36:44.206Z,98985.00
2023-02-01T12:43:13.503Z,98992.41
2023-02-01T12:45:59.697Z,98990.09
2023-02-01T12:48:29.186Z,98983.59
2023-02-01T12:51:10.443Z,98990.97
2023-02-01T12:54:13.166Z,98993.56
2023-02-01T12:56:45.762Z,98982.06
2023-02-01T12:59:33.460Z,98989.44
2023-02-01T13:02:32.000Z,98977.41
2023-02-01T13:05:14.219Z,98971.09
2023-02-01T13:07:50.431Z,98983.00
2023-02-01T13:11:04.690Z,98983.75
2023-02-01T13:13:50.903Z,98990.97
2023-02-01T13:16:29.117Z,98999.16
2023-02-01T13:19:43.156Z,98996.94
2023-02-01T13:22:38.233Z,99011.97
2023-02-01T13:25:46.976Z,99022.28
2023-02-01T13:28:41.229Z,99023.38
2023-02-01T13:31:11.744Z,99026.38
2023-02-01T13:34:25.545Z,99026.03
2023-02-01T13:37:10.475Z,99020.03
2023-02-01T13:39:57.711Z,99025.44
2023-02-01T13:42:40.589Z,99032.41
2023-02-01T13:45:27.499Z,99024.53
2023-02-01T13:48:01.030Z,99033.28
2023-02-01T13:50:39.551Z,99030.78
2023-02-01T13:53:24.179Z,99034.19
2023-02-01T13:56:02.499Z,99029.44
2023-02-01T13:58:35.811Z,99031.75
2023-02-01T14:01:23.901Z,99035.81
2023-02-01T14:04:05.140Z,99046.44
2023-02-01T14:06:45.731Z,99056.91
2023-02-01T14:09:39.187Z,99057.75
2023-02-01T14:16:14.426Z,99073.63
2023-02-01T14:18:49.492Z,99073.81
2023-02-01T14:21:35.380Z,99077.41
2023-02-01T14:24:10.413Z,99072.41
2023-02-01T14:26:50.839Z,99074.03
2023-02-01T14:29:29.523Z,99072.69
2023-02-01T14:32:18.734Z,99072.47
2023-02-01T14:34:51.337Z,99076.94
2023-02-01T14:37:20.773Z,99081.88
2023-02-01T14:40:19.404Z,99087.25
2023-02-01T14:42:54.670Z,99091.84
2023-02-01T14:45:24.611Z,99105.81
2023-02-01T14:48:09.832Z,99102.16
2023-02-01T14:50:53.747Z,99105.72
2023-02-01T14:53:38.461Z,99105.81
2023-02-01T14:56:17.250Z,99107.53
2023-02-01T14:59:19.986Z,99098.81
2023-02-01T15:01:54.964Z,99101.53
2023-02-01T15:04:29.755Z,99092.97
2023-02-01T15:07:18.760Z,99092.03
2023-02-01T15:09:51.722Z,99098.19
2023-02-01T15:12:36.862Z,99096.44
2023-02-01T15:15:27.685Z,99097.38
2023-02-01T15:18:02.263Z,99092.31
2023-02-01T15:20:34.474Z,99094.91
2023-02-01T15:23:06.377Z,99095.47
2023-02-01T15:25:40.339Z,99104.25
2023-02-01T15:28:16.653Z,99097.41
2023-02-01T15:31:01.422Z,99108.56
2023-02-01T15:33:33.063Z,99109.59
2023-02-01T15:36:08.514Z,99109.50
2023-02-01T15:38:46.773Z,99118.34
2023-02-01T15:41:21.504Z,99104.41
2023-02-01T15:44:16.851Z,99107.88
2023-02-01T15:46:49.556Z,99107.97
2023-02-01T15:49:23.115Z,99104.34
2023-02-01T15:51:52.814Z,99097.75
2023-02-01T15:54:46.213Z,99094.16
2023-02-01T15:57:33.396Z,99101.97
2023-02-01T16:00:42.895Z,99115.72
2023-02-01T16:03:35.757Z,99111.44
2023-02-01T16:06:08.549Z,99113.28
2023-02-01T16:08:39.120Z,99106.44
2023-02-01T16:11:10.773Z,99105.53
2023-02-01T16:13:39.775Z,99104.78
2023-02-01T16:16:10.813Z,99097.13
2023-02-01T16:18:39.838Z,99096.28
2023-02-01T16:21:12.543Z,99088.59
2023-02-01T16:23:42.543Z,99088.59
2023-02-01T16:26:13.662Z,99089.47
2023-02-01T16:28:43.691Z,99086.03
2023-02-01T16:31:22.117Z,99080.00
2023-02-01T16:33:54.206Z,99080.03
2023-02-01T16:36:24.987Z,99076.59
2023-02-01T16:38:56.116Z,99084.34
2023-02-01T16:41:27.226Z,99070.66
2023-02-01T16:43:58.237Z,99075.81
2023-02-01T16:46:32.269Z,99072.34
2023-02-01T16:49:03.382Z,99072.38
2023-02-01T16:51:37.679Z,99081.81
2023-02-01T16:54:07.509Z,99073.28
2023-02-01T16:56:37.997Z,99069.81
2023-02-01T16:59:07.929Z,99074.13
2023-02-01T17:01:39.794Z,99074.97
2023-02-01T17:04:09.945Z,99063.84
2023-02-01T17:06:41.068Z,99060.41
2023-02-01T17:09:12.626Z,99067.28
2023-02-01T17:11:41.908Z,99073.31
2023-02-01T17:14:18.225Z,99070.69
2023-02-01T17:16:50.208Z,99068.16
2023-02-01T17:19:24.841Z,99068.16
2023-02-01T17:22:00.390Z,99074.16
2023-02-01T17:24:42.719Z,99069.03
2023-02-01T17:27:18.661Z,99064.78
2023-02-01T17:29:49.522Z,99067.31
2023-02-01T17:32:25.299Z,99063.88
2023-02-01T17:34:54.384Z,99069.91
2023-02-01T17:37:34.698Z,99072.47
2023-02-01T17:40:04.385Z,99065.63
2023-02-01T17:42:33.169Z,99072.50
2023-02-01T17:45:13.246Z,99076.75
2023-02-01T17:47:42.384Z,99079.34
2023-02-01T17:50:11.977Z,99076.78
2023-02-01T17:52:42.075Z,99078.50
2023-02-01T17:55:24.360Z,99075.91
2023-02-01T17:57:53.701Z,99081.09
2023-02-01T18:00:23.292Z,99086.25
2023-02-01T18:02:53.612Z,99089.66
2023-02-01T18:05:30.524Z,99091.38
2023-02-01T18:07:59.502Z,99081.06
2023-02-01T18:10:28.297Z,99084.50
2023-02-01T18:12:58.495Z,99091.38
2023-02-01T18:15:27.611Z,99097.38
2023-02-01T18:17:56.364Z,99101.66
2023-02-01T18:20:28.137Z,99089.69
2023-02-01T18:22:57.284Z,99091.38
2023-02-01T18:25:28.751Z,99085.38
2023-02-01T18:27:58.627Z,99086.22
2023-02-01T18:30:33.857Z,99081.97
2023-02-01T18:33:03.013Z,99089.66
2023-02-01T18:35:33.742Z,99087.97
2023-02-01T18:38:02.803Z,99091.38
2023-02-01T18:40:47.010Z,99095.66
2023-02-01T18:43:16.091Z,99092.22
2023-02-01T18:45:46.478Z,99092.25
2023-02-01T18:48:17.696Z,99089.66
2023-02-01T18:50:47.383Z,99083.63
2023-02-01T18:53:28.479Z,99081.09
2023-02-01T18:55:59.410Z,99082.78
2023-02-01T18:58:28.989Z,99081.91
2023-02-01T19:01:00.361Z,99079.34
2023-02-01T19:03:29.850Z,99086.19
2023-02-01T19:05:59.527Z,99078.50
2023-02-01T19:08:28.940Z,99087.91
2023-02-01T19:11:01.465Z,99082.78
2023-02-01T19:13:32.127Z,99081.03
2023-02-01T19:16:06.909Z,99079.31
2023-02-01T19:18:37.131Z,99085.31
2023-02-01T19:21:12.030Z,99082.78
2023-02-01T19:23:42.401Z,99082.75
2023-02-01T19:26:16.364Z,99087.91
2023-02-01T19:28:49.775Z,99087.84
2023-02-01T19:31:20.350Z,99087.84
2023-02-01T19:33:49.339Z,99080.16
2023-02-01T19:36:18.171Z,99082.69
2023-02-01T19:38:47.704Z,99079.28
2023-02-01T19:41:16.453Z,99088.72
2023-02-01T19:43:45.852Z,99093.84
2023-02-01T19:46:14.893Z,99089.56
2023-02-01T19:48:44.061Z,99077.53
2023-02-01T19:51:13.677Z,99074.13
2023-02-01T19:53:43.043Z,99063.84
2023-02-01T19:56:11.930Z,99063.88
2023-02-01T19:58:41.597Z,99065.59
2023-02-01T20:01:09.706Z,99070.75
2023-02-01T20:03:39.581Z,99071.63
2023-02-01T20:06:08.556Z,99073.31
2023-02-01T20:08:37.921Z,99074.22
2023-02-01T20:11:09.892Z,99071.66
2023-02-01T20:13:39.563Z,99057.91
2023-02-01T20:16:11.015Z,99053.63
2023-02-01T20:18:40.756Z,99053.63
2023-02-01T20:21:09.770Z,99053.63
2023-02-01T20:23:38.938Z,99045.88
2023-02-01T20:26:12.312Z,99052.75
2023-02-01T20:28:42.251Z,99039.03
2023-02-01T20:31:16.490Z,99044.16
2023-02-01T20:33:46.072Z,99044.16
2023-02-01T20:36:15.198Z,99035.56
2023-02-01T20:38:44.300Z,99031.28
2023-02-01T20:41:13.571Z,99026.16
2023-02-01T20:43:43.137Z,99020.97
2023-02-01T20:46:12.419Z,99024.41
2023-02-01T20:48:45.020Z,99026.13
2023-02-01T20:51:17.169Z,99024.41
2023-02-01T20:53:48.605Z,99020.97
2023-02-01T20:56:17.972Z,99023.56
2023-02-01T20:58:47.153Z,99017.53
2023-02-01T21:01:17.321Z,99008.97
2023-02-01T21:03:46.723Z,99008.94
2023-02-01T21:06:15.663Z,99008.94
2023-02-01T21:08:44.916Z,98997.81
2023-02-01T21:11:16.906Z,99006.38
2023-02-01T21:13:55.630Z,99006.44
2023-02-01T21:16:24.998Z,99007.28
2023-02-01T21:18:54.643Z,99014.16
2023-02-01T21:21:24.059Z,99006.44
2023-02-01T21:23:54.106Z,99011.59
2023-02-01T21:26:26.079Z,99009.03
2023-02-01T21:28:57.002Z,99014.19
2023-02-01T21:31:26.749Z,99013.31
2023-02-01T21:33:55.543Z,99018.47
2023-02-01T21:36:25.671Z,99013.31
2023-02-01T21:39:04.441Z,99009.00
2023-02-01T21:41:53.858Z,99002.16
2023-02-01T21:44:24.085Z,98990.13
2023-02-01T21:46:53.086Z,98977.28
2023-02-01T21:49:23.383Z,98978.16
2023-02-01T21:51:52.657Z,98974.72
2023-02-01T21:54:21.897Z,98968.69
2023-02-01T21:56:51.012Z,98975.56
2023-02-01T21:59:20.142Z,98967.84
2023-02-01T22:01:49.308Z,98967.84
2023-02-01T22:04:18.654Z,98978.13
2023-02-01T22:06:48.069Z,98981.50
2023-02-01T22:09:23.016Z,98984.94
2023-02-01T22:11:54.745Z,98980.59
2023-02-01T22:14:24.686Z,98970.28
2023-02-01T22:16:53.949Z,98961.72
2023-02-01T22:19:23.570Z,98966.03
2023-02-01T22:21:52.450Z,98960.06
2023-02-01T22:24:23.100Z,98948.94
2023-02-01T22:26:52.978Z,98946.38
2023-02-01T22:29:24.722Z,98945.50
2023-02-01T22:31:54.456Z,98938.69
2023-02-01T22:34:25.286Z,98931.81
2023-02-01T22:36:54.665Z,98930.09
2023-02-01T22:39:25.008Z,98926.66
2023-02-01T22:41:55.174Z,98926.69
2023-02-01T22:44:25.673Z,98942.94
2023-02-01T22:46:54.798Z,98942.09
2023-02-01T22:49:24.303Z,98938.63
2023-02-01T22:51:53.613Z,98940.28
2023-02-01T22:54:25.453Z,98942.03
2023-02-01T22:56:54.770Z,98935.16
2023-02-01T22:59:23.902Z,98936.03
2023-02-01T23:01:53.595Z,98936.88
2023-02-01T23:04:23.826Z,98943.72
2023-02-01T23:06:53.613Z,98948.00
2023-02-01T23:09:26.280Z,98942.03
2023-02-01T23:11:56.608Z,98936.00
2023-02-01T23:14:26.040Z,98923.13
2023-02-01T23:16:59.349Z,98928.28
2023-02-01T23:19:28.209Z,98921.44
2023-02-01T23:21:57.222Z,98923.13
2023-02-01T23:24:26.609Z,98916.25
2023-02-01T23:26:55.580Z,98921.44
2023-02-01T23:29:24.672Z,98919.69
2023-02-01T23:31:53.718Z,98916.28
2023-02-01T23:34:22.995Z,98919.72
2023-02-01T23:36:51.895Z,98917.13
2023-02-01T23:39:21.193Z,98913.69
2023-02-01T23:41:50.133Z,98914.56
2023-02-01T23:44:19.208Z,98914.53
2023-02-01T23:46:51.019Z,98910.25
2023-02-01T23:49:20.474Z,98913.66
2023-02-01T23:51:54.104Z,98910.25
2023-02-01T23:54:24.815Z,98918.81
2023-02-01T23:56:54.315Z,98916.19
2023-02-01T23:59:27.462Z,98919.50
